createdAt,value
2022-10-28T00:00:33.352Z,18.33
2022-10-28T00:03:19.370Z,13.53
2022-10-28T00:06:04.789Z,13.30
2022-10-28T00:08:49.609Z,12.80
2022-10-28T00:11:35.092Z,15.20
2022-10-28T00:14:19.102Z,15.23
2022-10-28T00:17:03.113Z,15.73
2022-10-28T00:19:48.575Z,15.97
2022-10-28T00:22:32.504Z,15.50
2022-10-28T00:25:16.607Z,15.57
2022-10-28T00:28:00.537Z,15.83
2022-10-28T00:30:44.465Z,15.37
2022-10-28T00:33:28.429Z,14.87
2022-10-28T00:36:16.257Z,16.40
2022-10-28T00:39:00.751Z,16.90
2022-10-28T00:41:47.299Z,15.80
2022-10-28T00:44:56.554Z,17.17
2022-10-28T00:47:52.439Z,17.03
2022-10-28T00:50:47.841Z,18.00
2022-10-28T00:53:33.571Z,19.03
2022-10-28T00:56:18.786Z,18.87
2022-10-28T00:59:05.450Z,19.67
2022-10-28T01:01:49.411Z,19.87
2022-10-28T01:04:33.346Z,18.77
2022-10-28T01:07:18.354Z,19.17
2022-10-28T01:10:03.516Z,18.93
2022-10-28T01:12:57.222Z,18.53
2022-10-28T01:15:49.917Z,21.37
2022-10-28T01:18:47.052Z,15.90
2022-10-28T01:22:04.180Z,16.43
2022-10-28T01:25:30.831Z,14.80
2022-10-28T01:28:35.866Z,15.13
2022-10-28T01:31:32.015Z,12.93
2022-10-28T01:34:28.269Z,15.57
2022-10-28T01:37:16.737Z,14.73
2022-10-28T01:40:09.527Z,16.10
2022-10-28T01:43:00.354Z,12.93
2022-10-28T01:45:51.589Z,13.50
2022-10-28T01:48:45.467Z,13.97
2022-10-28T01:51:35.122Z,13.10
2022-10-28T01:54:23.552Z,13.50
2022-10-28T01:57:07.461Z,13.37
2022-10-28T01:59:52.234Z,13.83
2022-10-28T02:02:38.472Z,13.47
2022-10-28T02:05:45.370Z,13.30
2022-10-28T02:08:54.018Z,12.37
2022-10-28T02:11:55.088Z,12.50
2022-10-28T02:15:15.743Z,11.77
2022-10-28T02:18:14.870Z,12.23
2022-10-28T02:21:04.203Z,11.93
2022-10-28T02:23:53.847Z,11.73
2022-10-28T02:26:44.168Z,11.67
2022-10-28T02:29:33.098Z,11.43
2022-10-28T02:32:23.030Z,11.60
2022-10-28T02:35:13.559Z,11.27
2022-10-28T02:38:01.712Z,11.97
2022-10-28T02:43:43.999Z,11.23
2022-10-28T02:46:30.621Z,10.50
2022-10-28T02:49:15.965Z,10.70
2022-10-28T02:52:01.661Z,10.97
2022-10-28T02:54:52.756Z,11.37
2022-10-28T02:57:39.217Z,11.90
2022-10-28T03:00:25.033Z,10.87
2022-10-28T03:03:08.797Z,9.73
2022-10-28T03:05:52.702Z,9.27
2022-10-28T03:08:36.414Z,9.80
2022-10-28T03:11:21.614Z,9.83
2022-10-28T03:14:05.391Z,9.97
2022-10-28T03:16:49.142Z,9.20
2022-10-28T03:19:32.908Z,10.10
2022-10-28T03:22:16.963Z,11.03
2022-10-28T03:25:00.637Z,11.37
2022-10-28T03:27:45.750Z,12.03
2022-10-28T03:30:29.569Z,11.30
2022-10-28T03:33:13.311Z,11.43
2022-10-28T03:35:57.118Z,12.20
2022-10-28T03:38:40.809Z,13.60
2022-10-28T03:41:24.591Z,12.37
2022-10-28T03:44:09.706Z,11.80
2022-10-28T03:46:53.440Z,12.47
2022-10-28T03:49:37.192Z,12.67
2022-10-28T03:52:20.917Z,12.53
2022-10-28T03:55:04.949Z,13.80
2022-10-28T03:57:48.730Z,12.73
2022-10-28T04:00:33.975Z,14.67
2022-10-28T04:03:18.186Z,13.13
2022-10-28T04:06:01.845Z,12.83
2022-10-28T04:08:45.535Z,15.77
2022-10-28T04:11:29.282Z,14.23
2022-10-28T04:14:12.957Z,14.50
2022-10-28T04:16:58.047Z,15.10
2022-10-28T04:19:41.770Z,16.03
2022-10-28T04:22:25.524Z,16.37
2022-10-28T04:25:09.436Z,15.70
2022-10-28T04:27:53.497Z,16.37
2022-10-28T04:30:37.482Z,19.63
2022-10-28T04:33:22.632Z,20.30
2022-10-28T04:36:06.628Z,22.20
2022-10-28T04:38:51.997Z,24.53
2022-10-28T04:41:36.008Z,19.93
2022-10-28T04:44:19.945Z,42.37
2022-10-28T04:47:03.679Z,43.60
2022-10-28T04:49:48.911Z,59.27
2022-10-28T04:52:32.676Z,55.23
2022-10-28T04:55:17.744Z,53.80
2022-10-28T04:58:02.317Z,51.93
2022-10-28T05:00:46.027Z,61.80
2022-10-28T05:03:29.778Z,51.20
2022-10-28T05:06:14.873Z,49.30
2022-10-28T05:08:58.645Z,58.73
2022-10-28T05:11:42.556Z,60.73
2022-10-28T05:14:26.340Z,49.53
2022-10-28T05:17:11.527Z,46.07
2022-10-28T05:19:55.315Z,65.67
2022-10-28T05:22:46.179Z,55.60
2022-10-28T05:25:29.855Z,35.40
2022-10-28T05:28:13.698Z,33.83
2022-10-28T05:30:57.464Z,30.23
2022-10-28T05:33:41.244Z,39.07
2022-10-28T05:36:25.019Z,68.57
2022-10-28T05:39:10.234Z,82.50
2022-10-28T05:41:53.993Z,126.00
2022-10-28T05:44:37.688Z,92.53
2022-10-28T05:47:21.543Z,67.40
2022-10-28T05:50:05.683Z,102.20
2022-10-28T05:52:50.069Z,94.10
2022-10-28T05:55:35.425Z,115.43
2022-10-28T05:58:19.151Z,144.50
2022-10-28T06:01:02.832Z,126.10
2022-10-28T06:03:46.648Z,132.13
2022-10-28T06:06:30.796Z,93.73
2022-10-28T06:09:14.486Z,129.43
2022-10-28T06:11:58.236Z,79.87
2022-10-28T06:14:41.918Z,146.23
2022-10-28T06:17:25.835Z,105.50
2022-10-28T06:20:10.845Z,149.87
2022-10-28T06:22:56.378Z,110.53
2022-10-28T06:25:40.258Z,83.37
2022-10-28T06:28:25.709Z,137.13
2022-10-28T06:31:09.458Z,114.27
2022-10-28T06:33:53.221Z,123.73
2022-10-28T06:36:37.001Z,95.30
2022-10-28T06:39:20.796Z,107.50
2022-10-28T06:42:04.670Z,192.93
2022-10-28T06:44:50.706Z,116.70
2022-10-28T06:47:40.550Z,99.77
2022-10-28T06:50:25.587Z,61.80
2022-10-28T06:53:10.322Z,106.23
2022-10-28T06:55:55.099Z,143.67
2022-10-28T06:58:38.823Z,114.40
2022-10-28T07:01:24.116Z,73.87
2022-10-28T07:04:08.083Z,100.47
2022-10-28T07:06:56.252Z,100.07
2022-10-28T07:09:39.990Z,84.37
2022-10-28T07:12:23.729Z,44.77
2022-10-28T07:15:08.700Z,55.10
2022-10-28T07:17:58.312Z,51.57
2022-10-28T07:20:42.087Z,39.57
2022-10-28T07:23:25.878Z,40.93
2022-10-28T07:26:09.560Z,44.73
2022-10-28T07:28:53.339Z,65.83
2022-10-28T07:31:37.093Z,79.30
2022-10-28T07:34:26.851Z,53.57
2022-10-28T07:37:13.351Z,85.40
2022-10-28T07:39:57.131Z,122.30
2022-10-28T07:42:40.920Z,61.73
2022-10-28T07:45:24.628Z,41.17
2022-10-28T07:48:08.870Z,49.40
2022-10-28T07:50:53.996Z,39.73
2022-10-28T07:53:37.753Z,41.30
2022-10-28T07:56:21.519Z,41.70
2022-10-28T07:59:05.278Z,37.60
2022-10-28T08:01:49.033Z,39.27
2022-10-28T08:04:33.601Z,35.80
2022-10-28T08:07:19.678Z,37.67
2022-10-28T08:10:03.470Z,40.87
2022-10-28T08:12:47.650Z,40.20
2022-10-28T08:15:31.620Z,42.57
2022-10-28T08:18:15.611Z,38.57
2022-10-28T08:23:47.148Z,43.47
2022-10-28T08:26:31.247Z,47.40
2022-10-28T08:29:15.441Z,47.53
2022-10-28T08:31:59.282Z,46.33
2022-10-28T08:34:43.823Z,42.10
2022-10-28T08:37:28.063Z,39.37
2022-10-28T08:40:14.705Z,39.93
2022-10-28T08:43:04.628Z,43.33
2022-10-28T08:45:57.774Z,36.60
2022-10-28T08:48:43.054Z,33.43
2022-10-28T08:51:38.467Z,33.33
2022-10-28T08:54:27.325Z,29.10
2022-10-28T08:57:18.426Z,29.63
2022-10-28T09:00:04.087Z,36.90
2022-10-28T09:03:10.577Z,34.57
2022-10-28T09:06:02.376Z,31.33
2022-10-28T09:08:48.178Z,32.37
2022-10-28T09:11:52.379Z,33.20
2022-10-28T09:15:10.889Z,30.63
2022-10-28T09:17:57.114Z,34.00
2022-10-28T09:20:51.238Z,37.97
2022-10-28T09:23:38.993Z,27.08
2022-10-28T09:26:30.562Z,28.45
2022-10-28T09:29:31.223Z,25.48
2022-10-28T09:32:27.109Z,30.08
2022-10-28T09:35:15.168Z,27.60
2022-10-28T09:38:07.809Z,34.13
2022-10-28T09:40:57.188Z,27.50
2022-10-28T09:43:47.715Z,25.83
2022-10-28T09:46:37.042Z,22.63
2022-10-28T09:49:26.823Z,21.55
2022-10-28T09:52:16.110Z,19.15
2022-10-28T09:55:07.718Z,17.25
2022-10-28T09:57:52.149Z,19.45
2022-10-28T10:00:36.234Z,23.90
2022-10-28T10:03:20.024Z,18.40
2022-10-28T10:06:13.623Z,21.75
2022-10-28T10:08:58.181Z,19.88
2022-10-28T10:11:45.223Z,25.73
2022-10-28T10:14:32.562Z,18.40
2022-10-28T10:17:19.435Z,20.88
2022-10-28T10:20:08.063Z,16.95
2022-10-28T10:22:53.495Z,15.07
2022-10-28T10:25:37.676Z,17.17
2022-10-28T10:28:23.187Z,16.08
2022-10-28T10:31:09.411Z,13.70
2022-10-28T10:33:55.561Z,9.77
2022-10-28T10:36:39.266Z,9.73
2022-10-28T10:39:28.092Z,9.40
2022-10-28T10:42:17.856Z,12.98
2022-10-28T10:45:03.767Z,7.70
2022-10-28T10:47:47.947Z,10.65
2022-10-28T10:50:33.156Z,7.78
2022-10-28T10:53:23.858Z,9.15
2022-10-28T10:56:13.220Z,6.47
2022-10-28T10:59:02.837Z,10.25
2022-10-28T11:01:46.810Z,8.00
2022-10-28T11:04:30.993Z,10.82
2022-10-28T11:07:16.914Z,11.20
2022-10-28T11:10:02.049Z,11.07
2022-10-28T11:12:53.800Z,10.65
2022-10-28T11:15:38.060Z,7.53
2022-10-28T11:18:22.698Z,12.35
2022-10-28T11:21:12.320Z,10.55
2022-10-28T11:24:13.521Z,9.50
2022-10-28T11:27:06.667Z,9.02
2022-10-28T11:29:52.165Z,9.60
2022-10-28T11:32:56.189Z,16.10
2022-10-28T11:36:03.332Z,9.65
2022-10-28T11:39:07.724Z,8.05
2022-10-28T11:42:16.467Z,7.15
2022-10-28T11:45:07.247Z,10.25
2022-10-28T11:48:17.308Z,10.60
2022-10-28T11:51:12.993Z,8.32
2022-10-28T11:54:18.088Z,11.77
2022-10-28T11:57:07.065Z,10.68
2022-10-28T12:00:04.897Z,11.68
2022-10-28T12:03:02.391Z,8.40
2022-10-28T12:05:51.386Z,10.27
2022-10-28T12:08:48.332Z,7.22
2022-10-28T12:11:44.026Z,7.50
2022-10-28T12:14:33.823Z,9.52
2022-10-28T12:17:25.191Z,6.93
2022-10-28T12:20:17.056Z,6.13
2022-10-28T12:23:04.304Z,7.45
2022-10-28T12:25:52.803Z,7.75
2022-10-28T12:28:43.782Z,8.60
2022-10-28T12:31:31.257Z,7.68
2022-10-28T12:34:21.677Z,7.55
2022-10-28T12:37:09.999Z,7.78
2022-10-28T12:40:01.674Z,7.05
2022-10-28T12:42:51.814Z,9.68
2022-10-28T12:45:36.148Z,7.93
2022-10-28T12:48:25.436Z,8.20
2022-10-28T12:51:16.098Z,6.97
2022-10-28T12:54:03.404Z,6.00
2022-10-28T12:56:52.883Z,8.88
2022-10-28T12:59:40.239Z,6.68
2022-10-28T13:02:30.173Z,8.48
2022-10-28T13:05:22.661Z,9.15
2022-10-28T13:08:40.619Z,10.30
2022-10-28T13:11:59.708Z,8.10
2022-10-28T13:15:16.295Z,10.27
2022-10-28T13:18:39.584Z,7.95
2022-10-28T13:21:33.452Z,7.65
2022-10-28T13:24:23.847Z,7.22
2022-10-28T13:27:13.510Z,10.82
2022-10-28T13:30:02.948Z,14.10
2022-10-28T13:32:53.892Z,8.00
2022-10-28T13:35:38.437Z,8.32
2022-10-28T13:38:25.710Z,6.63
2022-10-28T13:41:28.248Z,14.48
2022-10-28T13:44:28.346Z,11.38
2022-10-28T13:47:28.899Z,9.50
2022-10-28T13:50:37.302Z,12.55
2022-10-28T13:53:53.143Z,8.75
2022-10-28T13:56:49.085Z,8.77
2022-10-28T13:59:48.238Z,24.20
2022-10-28T14:02:37.711Z,8.40
2022-10-28T14:05:26.032Z,8.68
2022-10-28T14:08:21.559Z,9.85
2022-10-28T14:11:08.852Z,9.00
2022-10-28T14:13:57.837Z,7.78
2022-10-28T14:16:45.624Z,11.82
2022-10-28T14:19:29.338Z,10.27
2022-10-28T14:22:13.625Z,9.27
2022-10-28T14:24:57.605Z,8.53
2022-10-28T14:27:42.500Z,8.20
2022-10-28T14:30:27.651Z,9.13
2022-10-28T14:33:22.735Z,12.48
2022-10-28T14:36:27.396Z,18.23
2022-10-28T14:39:33.908Z,12.37
2022-10-28T14:42:33.107Z,9.20
2022-10-28T14:45:26.755Z,9.53
2022-10-28T14:48:35.545Z,11.60
2022-10-28T14:51:24.676Z,11.68
2022-10-28T14:54:14.553Z,11.63
2022-10-28T14:56:58.488Z,41.90
2022-10-28T14:59:45.377Z,32.47
2022-10-28T15:02:31.062Z,64.03
2022-10-28T15:05:20.513Z,67.07
2022-10-28T15:08:04.991Z,20.20
2022-10-28T15:10:50.525Z,12.53
2022-10-28T15:13:34.221Z,12.73
2022-10-28T15:16:23.388Z,13.07
2022-10-28T15:19:07.680Z,13.03
2022-10-28T15:22:07.021Z,17.67
2022-10-28T15:24:59.016Z,21.97
2022-10-28T15:27:44.606Z,12.07
2022-10-28T15:30:28.756Z,12.43
2022-10-28T15:33:20.855Z,19.90
2022-10-28T15:36:18.313Z,20.03
2022-10-28T15:39:17.372Z,16.53
2022-10-28T15:42:02.619Z,19.63
2022-10-28T15:44:46.403Z,13.10
2022-10-28T15:47:33.257Z,14.33
2022-10-28T15:50:28.095Z,14.77
2022-10-28T15:53:34.740Z,9.93
2022-10-28T15:56:24.981Z,11.57
2022-10-28T15:59:18.663Z,15.10
2022-10-28T16:02:02.449Z,18.37
2022-10-28T16:04:46.354Z,15.60
2022-10-28T16:07:30.160Z,16.50
2022-10-28T16:10:16.170Z,15.10
2022-10-28T16:13:01.780Z,15.27
2022-10-28T16:15:49.829Z,17.33
2022-10-28T16:18:40.370Z,16.17
2022-10-28T16:21:27.394Z,16.97
2022-10-28T16:24:13.398Z,22.30
2022-10-28T16:27:14.830Z,21.90
2022-10-28T16:30:00.405Z,16.83
2022-10-28T16:32:47.128Z,21.70
2022-10-28T16:35:30.952Z,28.23
2022-10-28T16:38:14.799Z,22.50
2022-10-28T16:41:00.056Z,19.30
2022-10-28T16:43:43.804Z,15.93
2022-10-28T16:46:28.984Z,16.83
2022-10-28T16:49:14.202Z,19.73
2022-10-28T16:51:57.892Z,16.00
2022-10-28T16:54:41.784Z,15.03
2022-10-28T16:57:26.115Z,16.20
2022-10-28T17:00:11.404Z,17.30
2022-10-28T17:02:56.577Z,21.67
2022-10-28T17:05:40.331Z,22.73
2022-10-28T17:08:48.884Z,19.73
2022-10-28T17:11:27.818Z,19.70
2022-10-28T17:14:11.580Z,17.53
2022-10-28T17:16:55.368Z,21.23
2022-10-28T17:19:41.107Z,20.93
2022-10-28T17:22:24.992Z,30.03
2022-10-28T17:25:09.627Z,18.10
2022-10-28T17:27:54.053Z,23.47
2022-10-28T17:30:38.276Z,24.07
2022-10-28T17:33:21.974Z,16.83
2022-10-28T17:36:08.779Z,14.97
2022-10-28T17:38:52.480Z,13.70
2022-10-28T17:41:36.411Z,13.37
2022-10-28T17:44:20.152Z,14.53
2022-10-28T17:47:04.091Z,15.43
2022-10-28T17:49:47.813Z,15.57
2022-10-28T17:52:35.863Z,14.90
2022-10-28T17:55:22.312Z,20.33
2022-10-28T17:58:06.104Z,15.87
2022-10-28T18:00:49.914Z,14.13
2022-10-28T18:03:38.377Z,14.33
2022-10-28T18:06:22.667Z,14.93
2022-10-28T18:09:12.197Z,15.43
2022-10-28T18:11:55.955Z,15.50
2022-10-28T18:14:40.080Z,14.10
2022-10-28T18:17:24.013Z,14.03
2022-10-28T18:20:09.257Z,13.63
2022-10-28T18:22:53.232Z,13.40
2022-10-28T18:25:38.749Z,15.17
2022-10-28T18:28:23.584Z,13.47
2022-10-28T18:31:09.053Z,15.93
2022-10-28T18:33:53.336Z,16.00
2022-10-28T18:36:37.518Z,15.07
2022-10-28T18:39:21.321Z,13.60
2022-10-28T18:42:07.439Z,14.80
2022-10-28T18:44:58.600Z,14.83
2022-10-28T18:47:44.682Z,16.13
2022-10-28T18:50:28.496Z,16.07
2022-10-28T18:53:12.436Z,15.33
2022-10-28T18:56:01.557Z,15.63
2022-10-28T18:58:48.587Z,14.70
2022-10-28T19:01:33.540Z,15.67
2022-10-28T19:04:17.547Z,21.43
2022-10-28T19:07:01.489Z,17.87
2022-10-28T19:09:45.380Z,16.03
2022-10-28T19:12:29.368Z,15.47
2022-10-28T19:15:14.858Z,14.83
2022-10-28T19:17:58.818Z,16.00
2022-10-28T19:20:42.745Z,34.67
2022-10-28T19:23:26.619Z,50.90
2022-10-28T19:26:11.351Z,20.57
2022-10-28T19:28:55.855Z,17.87
2022-10-28T19:31:42.151Z,17.30
2022-10-28T19:34:27.473Z,17.13
2022-10-28T19:37:11.320Z,16.97
2022-10-28T19:39:56.574Z,17.67
2022-10-28T19:42:40.662Z,18.63
2022-10-28T19:45:24.966Z,19.33
2022-10-28T19:48:10.103Z,17.43
2022-10-28T19:50:53.837Z,18.10
2022-10-28T19:53:37.627Z,17.23
2022-10-28T19:56:23.125Z,18.90
2022-10-28T19:59:08.105Z,17.87
2022-10-28T20:01:52.012Z,17.33
2022-10-28T20:04:37.213Z,17.43
2022-10-28T20:07:23.447Z,18.10
2022-10-28T20:10:08.227Z,21.83
2022-10-28T20:12:52.044Z,17.90
2022-10-28T20:15:35.929Z,17.47
2022-10-28T20:18:19.773Z,17.67
2022-10-28T20:21:06.303Z,20.93
2022-10-28T20:23:53.923Z,17.07
2022-10-28T20:26:39.884Z,19.63
2022-10-28T20:29:23.555Z,20.97
2022-10-28T20:32:07.382Z,19.57
2022-10-28T20:34:51.082Z,18.10
2022-10-28T20:37:36.312Z,17.77
2022-10-28T20:40:20.033Z,18.03
2022-10-28T20:43:04.801Z,20.73
2022-10-28T20:45:56.095Z,18.33
2022-10-28T20:48:39.857Z,19.40
2022-10-28T20:51:24.416Z,18.23
2022-10-28T20:54:08.242Z,21.37
2022-10-28T20:56:51.968Z,19.57
2022-10-28T20:59:37.098Z,18.07
2022-10-28T21:02:20.923Z,19.97
2022-10-28T21:05:05.360Z,20.20
2022-10-28T21:07:49.113Z,20.13
2022-10-28T21:10:32.873Z,20.23
2022-10-28T21:13:16.888Z,20.43
2022-10-28T21:16:05.771Z,20.17
2022-10-28T21:18:50.042Z,21.43
2022-10-28T21:21:33.928Z,23.97
2022-10-28T21:24:17.867Z,19.33
2022-10-28T21:27:01.853Z,19.13
2022-10-28T21:29:45.920Z,20.80
2022-10-28T21:32:31.290Z,18.80
2022-10-28T21:35:15.187Z,20.37
2022-10-28T21:37:59.161Z,21.83
2022-10-28T21:40:42.960Z,18.87
2022-10-28T21:43:28.577Z,20.27
2022-10-28T21:46:12.366Z,18.70
2022-10-28T21:48:57.606Z,20.80
2022-10-28T21:51:42.326Z,19.70
2022-10-28T21:54:26.081Z,19.27
2022-10-28T21:57:10.056Z,21.63
2022-10-28T21:59:53.772Z,18.70
2022-10-28T22:02:37.489Z,20.60
2022-10-28T22:05:22.660Z,19.97
2022-10-28T22:08:06.719Z,20.00
2022-10-28T22:10:50.449Z,21.37
2022-10-28T22:13:34.375Z,19.43
2022-10-28T22:16:19.311Z,21.63
2022-10-28T22:19:05.487Z,17.83
2022-10-28T22:21:50.593Z,17.17
2022-10-28T22:24:34.391Z,17.87
2022-10-28T22:27:18.142Z,21.10
2022-10-28T22:30:01.906Z,21.17
2022-10-28T22:32:47.109Z,21.30
2022-10-28T22:35:30.819Z,18.67
2022-10-28T22:38:15.928Z,19.53
2022-10-28T22:41:03.491Z,19.80
2022-10-28T22:43:50.123Z,21.47
2022-10-28T22:46:36.631Z,23.10
2022-10-28T22:49:22.457Z,19.97
2022-10-28T22:52:06.341Z,20.00
2022-10-28T22:54:51.412Z,25.50
2022-10-28T22:57:35.064Z,19.67
2022-10-28T23:03:08.085Z,20.47
2022-10-28T23:05:51.860Z,19.43
2022-10-28T23:08:36.041Z,20.60
2022-10-28T23:11:21.942Z,19.83
2022-10-28T23:14:05.733Z,19.80
2022-10-28T23:16:49.829Z,17.87
2022-10-28T23:19:33.674Z,20.13
2022-10-28T23:22:17.444Z,19.97
2022-10-28T23:25:01.202Z,19.00
2022-10-28T23:27:46.269Z,17.33
2022-10-28T23:30:29.939Z,20.40
2022-10-28T23:33:13.773Z,15.67
2022-10-28T23:35:57.950Z,18.70
2022-10-28T23:38:42.090Z,16.37
2022-10-28T23:41:25.963Z,18.27
2022-10-28T23:44:11.142Z,19.20
2022-10-28T23:46:54.929Z,19.43
2022-10-28T23:49:38.791Z,17.43
2022-10-28T23:52:22.520Z,15.87
2022-10-28T23:55:07.192Z,15.57
2022-10-28T23:57:50.966Z,15.93
